Time;durP1;ratioP1;P1;durP2;ratioP2;P2;SDS_P1;SDS_P2;PMS_P1;PMS_P2;Temp;Humidity;BMP_temperature;BMP_pressure;BME280_temperature;BME280_humidity;BME280_pressure;Samples;Min_cycle;Max_cycle;Signal;HPM_P1;HPM_P2
2022/01/01 00:04:57;;;;;;;1999.90;999.90;;;;;;;14.11;87.02;101342.44;15667506;28;20073;-59
2022/01/01 00:12:30;;;;;;;1999.90;999.90;;;;;;;14.36;85.45;101335.78;15655686;28;20037;-59
2022/01/01 00:20:05;;;;;;;1999.90;999.90;;;;;;;14.10;86.00;101341.63;15644395;28;20053;-58
2022/01/01 00:27:38;;;;;;;1999.90;999.90;;;;;;;14.25;86.05;101353.38;15656026;28;20387;-58
2022/01/01 00:35:12;;;;;;;1999.90;999.90;;;;;;;14.14;87.59;101372.63;15675301;28;20103;-59
2022/01/01 00:42:44;;;;;;;1999.90;999.90;;;;;;;13.93;89.07;101372.59;15675557;28;20443;-60
2022/01/01 00:50:18;;;;;;;1999.90;999.90;;;;;;;14.21;87.73;101386.13;15675035;28;20410;-60
2022/01/01 00:57:51;;;;;;;1999.90;999.90;;;;;;;14.22;87.75;101393.38;15655805;28;20041;-60
2022/01/01 01:05:25;;;;;;;1999.90;999.90;;;;;;;13.93;89.17;101408.25;15674277;28;20102;-60
2022/01/01 01:12:58;;;;;;;1999.90;999.90;;;;;;;14.00;89.22;101411.34;15671697;28;20049;-59
2022/01/01 01:20:32;;;;;;;1999.90;999.90;;;;;;;13.86;90.16;101408.81;15650944;28;20044;-60
2022/01/01 01:28:07;;;;;;;1999.90;999.90;;;;;;;14.02;89.73;101439.88;15667321;28;20501;-60
2022/01/01 01:35:41;;;;;;;1999.90;999.90;;;;;;;13.86;90.10;101442.47;15659903;28;20048;-60
2022/01/01 01:43:14;;;;;;;1999.90;999.90;;;;;;;13.93;89.49;101439.09;15633789;28;20427;-60
2022/01/01 01:50:48;;;;;;;1999.90;999.90;;;;;;;14.10;88.60;101464.28;15624008;28;20099;-59
2022/01/01 01:58:20;;;;;;;1999.90;999.90;;;;;;;14.00;88.63;101461.84;15802048;22;20416;-64
2022/01/01 02:05:54;;;;;;;1999.90;999.90;;;;;;;14.39;87.18;101472.69;15735560;28;20312;-66
2022/01/01 02:13:32;;;;;;;1999.90;999.90;;;;;;;13.99;89.30;101474.25;15745066;28;20089;-66
2022/01/01 02:21:06;;;;;;;1999.90;999.90;;;;;;;13.91;89.32;101480.72;15747131;28;20044;-67
2022/01/01 02:28:40;;;;;;;1999.90;999.90;;;;;;;14.24;87.54;101492.09;15791450;28;20044;-65
2022/01/01 02:36:14;;;;;;;1999.90;999.90;;;;;;;14.01;87.80;101498.00;15757313;28;20135;-64
2022/01/01 02:43:47;;;;;;;1999.90;999.90;;;;;;;13.82;88.44;101497.56;15759071;28;20048;-66
2022/01/01 02:51:21;;;;;;;1999.90;999.90;;;;;;;14.07;87.38;101505.06;15800116;28;20496;-66
2022/01/01 02:58:54;;;;;;;1999.90;999.90;;;;;;;14.15;86.25;101504.19;15742273;28;20509;-66
2022/01/01 03:06:29;;;;;;;1999.90;999.90;;;;;;;13.92;87.04;101504.81;15790243;28;20052;-64
2022/01/01 03:14:01;;;;;;;1999.90;999.90;;;;;;;14.05;85.25;101498.94;15780060;28;20294;-66
2022/01/01 03:21:35;;;;;;;1999.90;999.90;;;;;;;14.14;85.19;101524.19;15766662;28;20053;-67
2022/01/01 03:29:08;;;;;;;1999.90;999.90;;;;;;;14.21;84.83;101532.06;15770672;28;20052;-66
2022/01/01 03:36:42;;;;;;;1999.90;999.90;;;;;;;14.33;84.25;101537.78;15757453;28;20451;-66
2022/01/01 03:44:15;;;;;;;1999.90;999.90;;;;;;;14.15;84.56;101540.66;15769286;28;20047;-66
2022/01/01 03:51:49;;;;;;;1999.90;999.90;;;;;;;14.05;85.08;101541.03;15796829;28;20048;-66
2022/01/01 03:59:22;;;;;;;1999.90;999.90;;;;;;;14.01;85.10;101542.88;15806572;28;20135;-65
2022/01/01 04:06:57;;;;;;;1999.90;999.90;;;;;;;13.99;85.06;101534.00;15753288;28;20048;-67
2022/01/01 04:14:30;;;;;;;1999.90;999.90;;;;;;;13.79;85.85;101557.16;15780213;28;20036;-66
2022/01/01 04:22:04;;;;;;;1999.90;999.90;;;;;;;13.89;85.68;101564.41;15785150;28;20508;-66
2022/01/01 04:29:38;;;;;;;1999.90;999.90;;;;;;;13.92;85.29;101574.94;15793664;28;20044;-66
2022/01/01 04:37:13;;;;;;;1999.90;999.90;;;;;;;13.98;85.20;101580.06;15800874;28;20044;-65
2022/01/01 04:44:46;;;;;;;1999.90;999.90;;;;;;;14.01;85.20;101578.56;15777247;28;20040;-65
2022/01/01 04:52:20;;;;;;;1999.90;999.90;;;;;;;14.00;84.59;101579.72;15780129;28;20102;-63
2022/01/01 04:59:53;;;;;;;1999.90;999.90;;;;;;;14.07;84.06;101592.06;15741923;28;20052;-64
2022/01/01 05:07:27;;;;;;;1999.90;999.90;;;;;;;14.25;83.12;101584.38;15781958;28;20049;-65
2022/01/01 05:15:00;;;;;;;1999.90;999.90;;;;;;;14.24;82.70;101593.16;15763856;28;20055;-65
2022/01/01 05:22:34;;;;;;;1999.90;999.90;;;;;;;14.21;82.43;101611.50;15741772;28;20035;-65
2022/01/01 05:30:08;;;;;;;1999.90;999.90;;;;;;;14.41;81.58;101609.94;15741822;28;20076;-66
2022/01/01 05:37:42;;;;;;;1999.90;999.90;;;;;;;14.18;82.08;101631.81;15746207;28;20051;-66
2022/01/01 05:45:26;;;;;;;1999.90;999.90;;;;;;;14.22;81.78;101641.22;15766108;28;20108;-65
2022/01/01 05:53:00;;;;;;;1999.90;999.90;;;;;;;14.06;82.33;101635.31;15773303;28;20044;-65
2022/01/01 06:00:37;;;;;;;1999.90;999.90;;;;;;;14.10;82.01;101647.53;15736010;28;20512;-66
2022/01/01 06:08:10;;;;;;;;;;;;;;;14.27;81.19;101645.81;15765089;28;20048;-65
2022/01/01 06:15:43;;;;;;;1999.90;999.90;;;;;;;14.09;81.70;101661.91;15779834;28;19990;-65
2022/01/01 06:23:17;;;;;;;1999.90;999.90;;;;;;;14.04;81.97;101668.50;15779135;28;20192;-65
2022/01/01 06:30:50;;;;;;;1999.90;999.90;;;;;;;14.14;80.89;101673.75;15751252;28;20044;-63
2022/01/01 06:38:24;;;;;;;1999.90;999.90;;;;;;;14.03;81.36;101680.06;15759365;28;20048;-65
2022/01/01 06:45:56;;;;;;;1999.90;999.90;;;;;;;14.08;81.09;101688.31;15775089;28;20043;-65
2022/01/01 06:53:30;;;;;;;1999.90;999.90;;;;;;;14.16;81.04;101691.06;15764156;28;20105;-65
2022/01/01 07:01:03;;;;;;;1999.90;999.90;;;;;;;14.50;79.86;101714.66;15765808;28;20040;-64
2022/01/01 07:08:37;;;;;;;1999.90;999.90;;;;;;;14.31;80.42;101705.75;15732890;28;20501;-64
2022/01/01 07:16:10;;;;;;;1999.90;999.90;;;;;;;14.27;80.06;101711.19;15716244;28;20045;-65
2022/01/01 07:23:44;;;;;;;1999.90;999.90;;;;;;;14.09;80.77;101715.22;15770865;28;20094;-65
2022/01/01 07:31:18;;;;;;;1999.90;999.90;;;;;;;14.22;80.33;101733.03;15752300;28;20504;-64
2022/01/01 07:38:52;;;;;;;1999.90;999.90;;;;;;;14.33;80.00;101742.75;15807278;28;20052;-65
2022/01/01 07:46:25;;;;;;;1999.90;999.90;;;;;;;14.44;79.39;101749.66;15751767;28;20094;-65
2022/01/01 07:53:59;;;;;;;1999.90;999.90;;;;;;;14.42;79.15;101761.22;15784152;28;20068;-63
2022/01/01 08:01:31;;;;;;;1999.90;999.90;;;;;;;14.46;78.97;101774.63;15797184;28;20071;-65
2022/01/01 08:09:06;;;;;;;1999.90;999.90;;;;;;;14.52;78.68;101771.31;15764448;28;20050;-64
2022/01/01 08:16:57;;;;;;;1999.90;999.90;;;;;;;14.75;77.62;101774.69;15734188;28;20136;-63
2022/01/01 08:24:31;;;;;;;1999.90;999.90;;;;;;;14.69;77.95;101779.69;15748864;28;21580;-65
2022/01/01 08:32:04;;;;;;;1999.90;999.90;;;;;;;14.54;78.18;101790.63;15787885;28;20452;-65
2022/01/01 08:39:38;;;;;;;1999.90;999.90;;;;;;;14.57;78.40;101804.81;15773126;28;20050;-64
2022/01/01 08:47:11;;;;;;;1999.90;999.90;;;;;;;14.60;78.41;101804.19;15764940;28;20040;-64
2022/01/01 08:54:45;;;;;;;1999.90;999.90;;;;;;;14.65;78.18;101820.84;15766043;28;20044;-64
2022/01/01 09:02:18;;;;;;;1999.90;999.90;;;;;;;14.57;78.42;101829.28;15720727;28;20162;-64
2022/01/01 09:09:52;;;;;;;1999.90;999.90;;;;;;;14.73;77.59;101828.44;15764409;28;20048;-65
2022/01/01 09:17:24;;;;;;;1999.90;999.90;;;;;;;14.80;77.61;101850.41;15710938;28;20056;-65
2022/01/01 09:24:58;;;;;;;1999.90;999.90;;;;;;;14.95;76.92;101852.66;15736069;28;20097;-65
2022/01/01 09:32:31;;;;;;;1999.90;999.90;;;;;;;14.77;77.42;101859.47;15739231;28;20449;-66
2022/01/01 09:40:06;;;;;;;1999.90;999.90;;;;;;;14.78;77.91;101863.94;15770203;28;20080;-65
2022/01/01 09:47:39;;;;;;;1999.90;999.90;;;;;;;14.82;77.46;101870.56;15717085;28;20500;-64
2022/01/01 09:55:13;;;;;;;1999.90;999.90;;;;;;;14.79;77.76;101885.25;15771103;28;20064;-65
2022/01/01 10:02:45;;;;;;;1999.90;999.90;;;;;;;15.17;76.38;101899.38;15786164;28;20429;-62
2022/01/01 10:10:25;;;;;;;1999.90;999.90;;;;;;;15.11;76.62;101894.28;15790761;28;20279;-64
2022/01/01 10:17:57;;;;;;;1999.90;999.90;;;;;;;14.93;77.39;101883.09;15790865;28;20131;-64
2022/01/01 10:33:32;;;;;;;1999.90;999.90;;;;;;;15.37;75.80;101897.81;15704915;28;20467;-62
2022/01/01 10:41:09;;;;;;;1999.90;999.90;;;;;;;15.03;76.22;101907.22;15744224;28;20048;-64
2022/01/01 10:48:54;;;;;;;1999.90;999.90;;;;;;;15.27;75.41;101898.19;15767283;28;20101;-63
2022/01/01 10:56:36;;;;;;;1999.90;999.90;;;;;;;15.08;75.79;101903.38;15773396;28;20044;-63
2022/01/01 11:04:09;;;;;;;1999.90;999.90;;;;;;;15.14;75.48;101904.88;15801499;28;20105;-64
2022/01/01 11:11:44;;;;;;;1999.90;999.90;;;;;;;15.44;74.58;101906.56;15745931;28;20467;-61
2022/01/01 11:19:19;;;;;;;1999.90;999.90;;;;;;;15.41;74.41;101907.22;15774954;28;20435;-62
2022/01/01 11:26:53;;;;;;;;;;;;;;;15.76;73.35;101898.66;15802964;28;20040;-64
2022/01/01 11:34:28;;;;;;;1999.90;999.90;;;;;;;15.58;73.83;101901.53;15806938;28;19955;-65
2022/01/01 11:42:12;;;;;;;1999.90;999.90;;;;;;;15.71;73.55;101901.66;15735358;28;20036;-63
2022/01/01 11:49:44;;;;;;;1999.90;999.90;;;;;;;15.44;73.52;101906.56;15793143;28;20116;-61
2022/01/01 11:57:22;;;;;;;1999.90;999.90;;;;;;;15.65;73.32;101901.03;15789294;28;20409;-66
2022/01/01 12:04:55;;;;;;;1999.90;999.90;;;;;;;15.57;73.35;101888.63;15783864;28;20517;-63
2022/01/01 12:12:43;;;;;;;1999.90;999.90;;;;;;;15.48;73.69;101901.91;15752687;28;20051;-63
2022/01/01 12:20:20;;;;;;;1999.90;999.90;;;;;;;15.68;73.38;101907.97;15765555;28;20405;-64
2022/01/01 12:27:56;;;;;;;1999.90;999.90;;;;;;;15.40;74.19;101908.38;15755248;28;20044;-65
2022/01/01 12:35:47;;;;;;;1999.90;999.90;;;;;;;15.45;74.21;101913.84;15798928;28;20113;-64
2022/01/01 12:43:22;;;;;;;1999.90;999.90;;;;;;;15.67;73.28;101926.03;15797404;28;20044;-63
2022/01/01 12:50:59;;;;;;;1999.90;999.90;;;;;;;15.51;73.92;101923.72;15770837;28;20132;-65
2022/01/01 12:58:34;;;;;;;1999.90;999.90;;;;;;;15.31;74.19;101918.84;15762911;28;20044;-62
2022/01/01 13:06:08;;;;;;;1999.90;999.90;;;;;;;15.45;73.76;101908.22;15758463;28;20485;-59
2022/01/01 13:13:48;;;;;;;1999.90;999.90;;;;;;;15.51;73.86;101895.59;15776041;28;20076;-61
2022/01/01 13:21:21;;;;;;;1999.90;999.90;;;;;;;15.63;73.41;101905.34;15821052;28;20051;-63
2022/01/01 13:28:58;;;;;;;1999.90;999.90;;;;;;;15.65;73.21;101903.03;15760977;28;20056;-64
2022/01/01 13:36:33;;;;;;;1999.90;999.90;;;;;;;15.66;73.12;101911.13;15722154;28;20041;-65
2022/01/01 13:44:19;;;;;;;1999.90;999.90;;;;;;;15.71;73.39;101904.47;15705200;28;20131;-59
2022/01/01 13:51:57;;;;;;;1999.90;999.90;;;;;;;15.29;74.29;101916.38;15722073;28;20021;-64
2022/01/01 13:59:31;;;;;;;1999.90;999.90;;;;;;;15.43;73.95;101909.72;15729882;28;20048;-61
2022/01/01 14:07:08;;;;;;;1999.90;999.90;;;;;;;15.52;73.24;101905.69;15721010;28;20041;-62
2022/01/01 14:14:45;;;;;;;1999.90;999.90;;;;;;;15.73;72.60;101907.78;15721220;28;20401;-64
2022/01/01 14:22:18;;;;;;;1999.90;999.90;;;;;;;15.59;72.61;101908.81;15758698;28;20036;-63
2022/01/01 14:29:52;;;;;;;1999.90;999.90;;;;;;;15.63;72.53;101900.56;15781498;28;20052;-65
2022/01/01 14:37:25;;;;;;;1999.90;999.90;;;;;;;15.67;72.49;101892.25;15766320;28;20493;-64
2022/01/01 14:44:59;;;;;;;1999.90;999.90;;;;;;;15.53;72.41;101898.94;15776744;28;20603;-65
2022/01/01 14:52:39;;;;;;;1999.90;999.90;;;;;;;15.69;71.88;101889.94;15768967;28;20040;-64
2022/01/01 15:00:16;;;;;;;1999.90;999.90;;;;;;;15.60;71.88;101906.84;15773023;28;20131;-61
2022/01/01 15:07:53;;;;;;;1999.90;999.90;;;;;;;15.46;72.27;101894.97;15775320;28;20165;-65
2022/01/01 15:15:28;;;;;;;1999.90;999.90;;;;;;;15.45;72.04;101902.59;15730763;28;20056;-68
2022/01/01 15:23:06;;;;;;;1999.90;999.90;;;;;;;15.44;72.21;101888.88;15748266;28;20112;-64
2022/01/01 15:30:49;;;;;;;1999.90;999.90;;;;;;;15.50;71.96;101910.81;15770893;28;20048;-64
2022/01/01 15:38:26;;;;;;;1999.90;999.90;;;;;;;15.44;72.28;101912.19;15778340;28;20202;-63
2022/01/01 15:46:01;;;;;;;1999.90;999.90;;;;;;;15.32;72.71;101909.28;15752080;28;20105;-64
2022/01/01 15:53:36;;;;;;;1999.90;999.90;;;;;;;15.03;73.57;101904.41;15785012;28;20421;-64
2022/01/01 16:01:21;;;;;;;1999.90;999.90;;;;;;;15.21;73.24;101913.59;15795581;28;20158;-64
2022/01/01 16:08:55;;;;;;;1999.90;999.90;;;;;;;15.20;72.83;101923.19;15804866;28;20505;-64
2022/01/01 16:16:34;;;;;;;1999.90;999.90;;;;;;;15.25;72.73;101923.03;15759428;28;20040;-61
2022/01/01 16:24:09;;;;;;;1999.90;999.90;;;;;;;15.28;72.55;101909.09;15760365;28;20040;-64
2022/01/01 16:31:44;;;;;;;1999.90;999.90;;;;;;;15.23;72.21;101916.91;15804052;28;20108;-64
2022/01/01 16:39:21;;;;;;;1999.90;999.90;;;;;;;15.14;72.38;101916.94;15773993;28;20101;-64
2022/01/01 16:47:03;;;;;;;1999.90;999.90;;;;;;;15.11;72.24;101934.47;15776194;28;20098;-64
2022/01/01 16:54:39;;;;;;;1999.90;999.90;;;;;;;15.17;71.91;101926.69;15788401;28;20131;-63
2022/01/01 17:02:16;;;;;;;1999.90;999.90;;;;;;;15.17;71.76;101916.25;15786001;28;20148;-63
2022/01/01 17:09:49;;;;;;;1999.90;999.90;;;;;;;15.21;71.79;101919.22;15774668;28;20048;-64
2022/01/01 17:17:28;;;;;;;;;;;;;;;15.24;71.64;101924.19;15772869;28;20097;-63
2022/01/01 17:25:07;;;;;;;1999.90;999.90;;;;;;;15.09;71.56;101903.03;15799619;28;19951;-65
2022/01/01 17:32:47;;;;;;;1999.90;999.90;;;;;;;14.97;71.80;101903.72;15793258;28;20070;-66
2022/01/01 17:40:21;;;;;;;1999.90;999.90;;;;;;;14.99;71.78;101907.03;15792537;28;20119;-65
2022/01/01 17:47:57;;;;;;;1999.90;999.90;;;;;;;14.80;72.25;101915.03;15789444;28;20097;-64
2022/01/01 17:55:30;;;;;;;1999.90;999.90;;;;;;;14.72;72.30;101913.06;15789774;28;20079;-65
2022/01/01 18:03:05;;;;;;;1999.90;999.90;;;;;;;14.72;72.52;101893.38;15754415;28;20129;-64
2022/01/01 18:10:43;;;;;;;1999.90;999.90;;;;;;;14.67;72.80;101885.94;15777797;28;20040;-65
2022/01/01 18:18:19;;;;;;;1999.90;999.90;;;;;;;14.69;72.25;101894.03;15750161;28;20136;-64
2022/01/01 18:25:55;;;;;;;1999.90;999.90;;;;;;;14.87;71.85;101887.22;15801267;28;20690;-63
2022/01/01 18:33:30;;;;;;;1999.90;999.90;;;;;;;14.80;71.87;101892.56;15754027;28;20143;-64
2022/01/01 18:41:03;;;;;;;1999.90;999.90;;;;;;;14.68;72.18;101895.19;15767082;28;20043;-65
2022/01/01 18:48:38;;;;;;;1999.90;999.90;;;;;;;14.55;72.55;101894.22;15788140;28;20408;-68
2022/01/01 18:56:10;;;;;;;1999.90;999.90;;;;;;;14.53;72.47;101907.78;15803898;28;20040;-65
2022/01/01 19:03:48;;;;;;;1999.90;999.90;;;;;;;14.64;72.07;101900.66;15783373;28;20484;-64
2022/01/01 19:11:28;;;;;;;1999.90;999.90;;;;;;;14.66;72.06;101917.19;15779804;28;20916;-66
2022/01/01 19:19:08;;;;;;;1999.90;999.90;;;;;;;14.63;72.15;101895.38;15779905;28;20124;-67
2022/01/01 19:26:48;;;;;;;1999.90;999.90;;;;;;;14.65;72.10;101905.13;15773790;28;20097;-68
2022/01/01 19:34:30;;;;;;;1999.90;999.90;;;;;;;14.75;71.83;101887.09;15789953;28;20573;-67
2022/01/01 19:42:14;;;;;;;1999.90;999.90;;;;;;;14.69;71.83;101892.06;15790005;28;20050;-64
2022/01/01 19:50:00;;;;;;;1999.90;999.90;;;;;;;14.76;71.79;101893.53;15792328;28;20125;-63
2022/01/01 19:57:40;;;;;;;1999.90;999.90;;;;;;;14.47;72.51;101866.13;15774689;28;20051;-61
2022/01/01 20:05:23;;;;;;;1999.90;999.90;;;;;;;14.45;72.23;101846.81;15789039;28;20501;-61
2022/01/01 20:12:59;;;;;;;;;;;;;;;14.36;72.29;101838.34;15771099;28;20134;-66
2022/01/01 20:20:41;;;;;;;1999.90;999.90;;;;;;;14.32;72.41;101833.75;15772620;28;19928;-64
2022/01/01 20:28:18;;;;;;;1999.90;999.90;;;;;;;14.07;72.71;101821.38;15770256;28;20046;-62
2022/01/01 20:35:59;;;;;;;1999.90;999.90;;;;;;;14.04;72.80;101822.84;15767968;28;20134;-65
2022/01/01 20:43:37;;;;;;;1999.90;999.90;;;;;;;13.91;72.80;101803.38;15769879;28;20076;-64
2022/01/01 20:51:16;;;;;;;1999.90;999.90;;;;;;;13.86;72.87;101799.59;15765247;28;20077;-62
2022/01/01 20:58:49;;;;;;;1999.90;999.90;;;;;;;13.71;73.09;101793.63;15782297;28;20656;-65
2022/01/01 21:06:39;;;;;;;1999.90;999.90;;;;;;;13.79;72.71;101802.06;15769582;28;20086;-66
2022/01/01 21:14:29;;;;;;;1999.90;999.90;;;;;;;13.74;72.77;101787.34;15764945;28;20047;-64
2022/01/01 21:22:08;;;;;;;1999.90;999.90;;;;;;;13.74;72.40;101790.97;15786553;28;20048;-63
2022/01/01 21:29:41;;;;;;;1999.90;999.90;;;;;;;13.70;72.35;101792.78;15786208;28;20144;-63
2022/01/01 21:37:15;;;;;;;1999.90;999.90;;;;;;;13.69;72.34;101788.34;15766793;28;20048;-64
2022/01/01 21:44:48;;;;;;;1999.90;999.90;;;;;;;13.74;71.95;101770.50;15784848;28;20052;-62
2022/01/01 21:52:22;;;;;;;1999.90;999.90;;;;;;;13.54;72.24;101757.94;15757877;28;20043;-63
2022/01/01 21:59:55;;;;;;;1999.90;999.90;;;;;;;13.48;72.25;101751.69;15766422;28;20043;-64
2022/01/01 22:07:29;;;;;;;1999.90;999.90;;;;;;;13.13;73.20;101711.53;15742576;28;20044;-67
2022/01/01 22:15:02;;;;;;;1999.90;999.90;;;;;;;13.18;72.81;101721.75;15755911;28;20048;-66
2022/01/01 22:22:36;;;;;;;1999.90;999.90;;;;;;;13.00;73.19;101704.91;15741887;28;20044;-68
2022/01/01 22:30:10;;;;;;;1999.90;999.90;;;;;;;13.06;72.61;101722.41;15749790;28;20052;-67
2022/01/01 22:37:44;;;;;;;1999.90;999.90;;;;;;;12.93;72.60;101717.75;15734295;28;20141;-66
2022/01/01 22:45:17;;;;;;;1999.90;999.90;;;;;;;12.76;72.76;101698.91;15742406;28;20447;-66
2022/01/01 22:52:51;;;;;;;1999.90;999.90;;;;;;;12.74;72.21;101701.19;15738349;28;20044;-65
2022/01/01 23:01:03;;;;;;;1999.90;999.90;;;;;;;12.69;72.49;101676.94;15736316;28;20094;-65
2022/01/01 23:08:38;;;;;;;1999.90;999.90;;;;;;;12.50;72.49;101645.59;15729459;28;20040;-66
2022/01/01 23:16:13;;;;;;;1999.90;999.90;;;;;;;12.40;72.43;101668.25;15764829;28;20294;-65
2022/01/01 23:23:49;;;;;;;1999.90;999.90;;;;;;;12.52;72.13;101682.50;15762210;28;20103;-64
2022/01/01 23:31:27;;;;;;;1999.90;999.90;;;;;;;12.33;72.87;101688.34;15786477;28;20093;-64
2022/01/01 23:39:04;;;;;;;1999.90;999.90;;;;;;;12.39;72.34;101656.25;15764716;28;20032;-65
2022/01/01 23:46:39;;;;;;;1999.90;999.90;;;;;;;12.05;73.13;101623.34;15756835;28;20074;-66
2022/01/01 23:54:14;;;;;;;1999.90;999.90;;;;;;;12.00;73.44;101647.84;15764182;28;20044;-65
